sensor_id;sensor_type;location;lat;lon;timestamp;pressure;altitude;pressure_sealevel;temperature;humidity
68508;BME280;55510;49.560;19.090;2023-03-01T10:41:59;97311.97;;;26.82;15.53
68508;BME280;55510;49.560;19.090;2023-03-01T10:48:31;97301.88;;;25.73;15.80
68508;BME280;55510;49.560;19.090;2023-03-01T10:51:33;97297.31;;;25.33;15.98
68508;BME280;55510;49.560;19.090;2023-03-01T10:54:33;97298.94;;;25.34;16.08
68508;BME280;55510;49.560;19.090;2023-03-01T10:57:38;97290.47;;;26.06;15.86
68508;BME280;55510;49.560;19.090;2023-03-01T11:00:56;97289.19;;;26.69;15.37
68508;BME280;55510;49.560;19.090;2023-03-01T11:07:07;97296.88;;;27.45;14.53
68508;BME280;55510;49.560;19.090;2023-03-01T11:10:17;97293.03;;;26.77;14.87
68508;BME280;55510;49.560;19.090;2023-03-01T11:13:19;97294.56;;;26.57;15.13
68508;BME280;55510;49.560;19.090;2023-03-01T11:16:44;97283.09;;;26.16;15.48
68508;BME280;55510;49.560;19.090;2023-03-01T11:20:05;97275.63;;;26.99;15.15
68508;BME280;55510;49.560;19.090;2023-03-01T11:23:14;97273.13;;;27.58;14.58
68508;BME280;55510;49.560;19.090;2023-03-01T11:26:17;97267.97;;;27.14;14.51
68508;BME280;55510;49.560;19.090;2023-03-01T11:29:27;97259.31;;;27.12;14.93
68508;BME280;55510;49.560;19.090;2023-03-01T11:32:33;97263.97;;;27.96;14.30
68508;BME280;55510;49.560;19.090;2023-03-01T11:35:42;97261.03;;;27.38;14.40
68508;BME280;55510;49.560;19.090;2023-03-01T11:38:44;97263.31;;;26.75;14.76
68508;BME280;55510;49.560;19.090;2023-03-01T11:41:48;97258.53;;;26.16;15.45
68508;BME280;55510;49.560;19.090;2023-03-01T11:44:55;97248.78;;;25.97;15.51
68508;BME280;55510;49.560;19.090;2023-03-01T11:51:35;97246.16;;;26.27;15.47
68508;BME280;55510;49.560;19.090;2023-03-01T12:08:42;97211.53;;;26.10;15.86
68508;BME280;55510;49.560;19.090;2023-03-01T12:19:14;97210.88;;;26.13;15.37
68508;BME280;55510;49.560;19.090;2023-03-01T12:47:01;97189.50;;;25.68;16.25
68508;BME280;55510;49.560;19.090;2023-03-01T12:50:17;97181.78;;;25.70;16.36
68508;BME280;55510;49.560;19.090;2023-03-01T12:53:24;97177.31;;;25.65;16.86
68508;BME280;55510;49.560;19.090;2023-03-01T12:56:32;97173.78;;;25.29;17.00
68508;BME280;55510;49.560;19.090;2023-03-01T13:13:02;97160.09;;;20.45;21.37
68508;BME280;55510;49.560;19.090;2023-03-01T13:16:39;97158.31;;;18.56;23.00
68508;BME280;55510;49.560;19.090;2023-03-01T13:19:55;97158.22;;;17.38;25.24
68508;BME280;55510;49.560;19.090;2023-03-01T13:23:07;97155.06;;;16.57;26.53
68508;BME280;55510;49.560;19.090;2023-03-01T13:26:17;97148.22;;;15.80;27.19
68508;BME280;55510;49.560;19.090;2023-03-01T13:29:26;97139.75;;;14.96;27.93
68508;BME280;55510;49.560;19.090;2023-03-01T13:35:41;97136.38;;;14.34;29.49
68508;BME280;55510;49.560;19.090;2023-03-01T13:41:54;97141.78;;;13.77;30.39
68508;BME280;55510;49.560;19.090;2023-03-01T13:44:56;97131.75;;;13.68;30.77
68508;BME280;55510;49.560;19.090;2023-03-01T13:48:00;97130.28;;;13.26;30.83
68508;BME280;55510;49.560;19.090;2023-03-01T13:51:06;97140.34;;;12.89;31.70
68508;BME280;55510;49.560;19.090;2023-03-01T13:54:11;97131.00;;;12.46;32.27
68508;BME280;55510;49.560;19.090;2023-03-01T13:57:20;97139.06;;;12.22;32.52
68508;BME280;55510;49.560;19.090;2023-03-01T14:00:31;97132.56;;;12.18;33.10
68508;BME280;55510;49.560;19.090;2023-03-01T14:03:40;97133.72;;;12.22;33.43
68508;BME280;55510;49.560;19.090;2023-03-01T14:06:42;97127.97;;;12.01;33.20
68508;BME280;55510;49.560;19.090;2023-03-01T14:09:44;97135.94;;;11.89;34.16
68508;BME280;55510;49.560;19.090;2023-03-01T14:13:08;97138.72;;;11.83;33.95
68508;BME280;55510;49.560;19.090;2023-03-01T14:16:19;97142.53;;;11.51;34.67
68508;BME280;55510;49.560;19.090;2023-03-01T14:19:28;97144.00;;;11.11;35.07
68508;BME280;55510;49.560;19.090;2023-03-01T14:22:34;97141.97;;;10.95;35.43
68508;BME280;55510;49.560;19.090;2023-03-01T14:25:37;97134.31;;;10.86;35.92
68508;BME280;55510;49.560;19.090;2023-03-01T14:28:39;97131.25;;;10.71;36.26
68508;BME280;55510;49.560;19.090;2023-03-01T14:31:43;97140.88;;;10.53;37.25
68508;BME280;55510;49.560;19.090;2023-03-01T14:34:45;97135.75;;;10.40;37.48
68508;BME280;55510;49.560;19.090;2023-03-01T14:37:46;97140.50;;;10.31;38.09
68508;BME280;55510;49.560;19.090;2023-03-01T14:40:52;97129.44;;;9.78;38.54
68508;BME280;55510;49.560;19.090;2023-03-01T14:43:59;97137.63;;;9.77;39.07
68508;BME280;55510;49.560;19.090;2023-03-01T14:47:01;97140.56;;;9.68;39.42
68508;BME280;55510;49.560;19.090;2023-03-01T14:50:26;97138.25;;;9.53;40.04
68508;BME280;55510;49.560;19.090;2023-03-01T14:53:29;97139.81;;;9.36;39.84
68508;BME280;55510;49.560;19.090;2023-03-01T14:56:43;97139.53;;;9.19;40.48
68508;BME280;55510;49.560;19.090;2023-03-01T14:59:45;97145.72;;;9.12;40.44
68508;BME280;55510;49.560;19.090;2023-03-01T15:02:48;97143.59;;;8.96;40.72
68508;BME280;55510;49.560;19.090;2023-03-01T15:05:50;97139.19;;;8.76;41.11
68508;BME280;55510;49.560;19.090;2023-03-01T15:08:53;97137.22;;;8.65;41.24
68508;BME280;55510;49.560;19.090;2023-03-01T15:11:54;97129.13;;;8.46;41.50
68508;BME280;55510;49.560;19.090;2023-03-01T15:14:56;97136.50;;;8.37;41.81
68508;BME280;55510;49.560;19.090;2023-03-01T15:17:59;97140.63;;;8.26;41.63
68508;BME280;55510;49.560;19.090;2023-03-01T15:21:19;97137.84;;;8.08;41.93
68508;BME280;55510;49.560;19.090;2023-03-01T15:24:25;97134.59;;;7.99;42.13
68508;BME280;55510;49.560;19.090;2023-03-01T15:27:28;97134.22;;;7.95;42.03
68508;BME280;55510;49.560;19.090;2023-03-01T15:30:32;97132.00;;;7.79;42.17
68508;BME280;55510;49.560;19.090;2023-03-01T15:33:37;97135.09;;;7.35;42.94
68508;BME280;55510;49.560;19.090;2023-03-01T15:39:56;97130.69;;;6.40;44.73
68508;BME280;55510;49.560;19.090;2023-03-01T15:42:58;97130.09;;;6.03;45.69
68508;BME280;55510;49.560;19.090;2023-03-01T15:45:59;97125.63;;;5.68;46.75
68508;BME280;55510;49.560;19.090;2023-03-01T15:49:03;97130.06;;;5.32;47.78
68508;BME280;55510;49.560;19.090;2023-03-01T15:52:29;97133.84;;;5.01;48.61
68508;BME280;55510;49.560;19.090;2023-03-01T15:55:35;97139.44;;;4.70;49.34
68508;BME280;55510;49.560;19.090;2023-03-01T15:58:36;97133.06;;;4.42;50.24
68508;BME280;55510;49.560;19.090;2023-03-01T16:01:36;97131.38;;;4.19;51.38
68508;BME280;55510;49.560;19.090;2023-03-01T16:04:37;97137.56;;;3.97;52.41
68508;BME280;55510;49.560;19.090;2023-03-01T16:07:38;97140.38;;;3.80;53.29
68508;BME280;55510;49.560;19.090;2023-03-01T16:10:41;97140.94;;;3.60;54.05
68508;BME280;55510;49.560;19.090;2023-03-01T16:13:44;97137.53;;;3.37;54.99
68508;BME280;55510;49.560;19.090;2023-03-01T16:16:46;97136.69;;;3.21;55.16
68508;BME280;55510;49.560;19.090;2023-03-01T16:19:48;97143.06;;;3.03;56.13
68508;BME280;55510;49.560;19.090;2023-03-01T16:22:49;97147.47;;;2.88;56.32
68508;BME280;55510;49.560;19.090;2023-03-01T16:25:50;97138.72;;;2.72;56.59
68508;BME280;55510;49.560;19.090;2023-03-01T16:28:55;97147.31;;;2.58;57.39
68508;BME280;55510;49.560;19.090;2023-03-01T16:31:56;97150.84;;;2.42;57.37
68508;BME280;55510;49.560;19.090;2023-03-01T16:35:00;97163.94;;;2.27;57.66
68508;BME280;55510;49.560;19.090;2023-03-01T16:38:00;97164.97;;;2.09;57.92
68508;BME280;55510;49.560;19.090;2023-03-01T16:41:02;97173.56;;;1.95;58.55
68508;BME280;55510;49.560;19.090;2023-03-01T16:44:02;97168.03;;;1.81;58.71
68508;BME280;55510;49.560;19.090;2023-03-01T16:47:03;97166.41;;;1.64;58.85
68508;BME280;55510;49.560;19.090;2023-03-01T16:50:04;97159.88;;;1.51;59.64
68508;BME280;55510;49.560;19.090;2023-03-01T16:53:05;97173.34;;;1.40;59.93
68508;BME280;55510;49.560;19.090;2023-03-01T16:56:08;97180.88;;;1.26;60.53
68508;BME280;55510;49.560;19.090;2023-03-01T16:59:09;97179.44;;;1.15;61.74
68508;BME280;55510;49.560;19.090;2023-03-01T17:02:13;97173.50;;;1.05;62.37
68508;BME280;55510;49.560;19.090;2023-03-01T17:05:15;97178.28;;;0.93;62.98
68508;BME280;55510;49.560;19.090;2023-03-01T17:08:16;97172.19;;;0.76;63.71
68508;BME280;55510;49.560;19.090;2023-03-01T17:11:18;97173.31;;;0.65;64.29
68508;BME280;55510;49.560;19.090;2023-03-01T17:14:19;97179.84;;;0.53;64.68
68508;BME280;55510;49.560;19.090;2023-03-01T17:17:21;97178.47;;;0.40;65.54
68508;BME280;55510;49.560;19.090;2023-03-01T17:20:22;97177.44;;;0.25;66.21
68508;BME280;55510;49.560;19.090;2023-03-01T17:23:22;97181.97;;;0.06;66.46
68508;BME280;55510;49.560;19.090;2023-03-01T17:26:23;97180.41;;;-0.13;67.61
68508;BME280;55510;49.560;19.090;2023-03-01T17:29:24;97173.13;;;-0.27;68.48
68508;BME280;55510;49.560;19.090;2023-03-01T17:32:25;97174.22;;;-0.38;69.10
68508;BME280;55510;49.560;19.090;2023-03-01T17:35:26;97178.34;;;-0.54;69.53
68508;BME280;55510;49.560;19.090;2023-03-01T17:38:27;97182.63;;;-0.71;70.53
68508;BME280;55510;49.560;19.090;2023-03-01T17:41:27;97187.13;;;-0.81;70.88
68508;BME280;55510;49.560;19.090;2023-03-01T17:44:28;97181.63;;;-0.96;71.14
68508;BME280;55510;49.560;19.090;2023-03-01T17:47:29;97188.22;;;-1.10;71.47
68508;BME280;55510;49.560;19.090;2023-03-01T17:50:30;97186.94;;;-1.24;71.94
68508;BME280;55510;49.560;19.090;2023-03-01T17:53:30;97187.97;;;-1.35;72.64
68508;BME280;55510;49.560;19.090;2023-03-01T17:56:31;97200.41;;;-1.47;73.95
68508;BME280;55510;49.560;19.090;2023-03-01T17:59:36;97195.41;;;-1.58;74.32
68508;BME280;55510;49.560;19.090;2023-03-01T18:02:37;97196.28;;;-1.68;74.53
68508;BME280;55510;49.560;19.090;2023-03-01T18:05:38;97194.25;;;-1.74;75.54
68508;BME280;55510;49.560;19.090;2023-03-01T18:08:41;97196.75;;;-1.82;75.55
68508;BME280;55510;49.560;19.090;2023-03-01T18:11:42;97191.44;;;-1.91;76.48
68508;BME280;55510;49.560;19.090;2023-03-01T18:14:43;97190.75;;;-1.93;75.75
68508;BME280;55510;49.560;19.090;2023-03-01T18:17:44;97187.78;;;-1.98;76.75
68508;BME280;55510;49.560;19.090;2023-03-01T18:20:44;97191.63;;;-2.02;77.43
68508;BME280;55510;49.560;19.090;2023-03-01T18:23:45;97192.06;;;-2.07;77.27
68508;BME280;55510;49.560;19.090;2023-03-01T18:26:46;97187.41;;;-2.13;77.17
68508;BME280;55510;49.560;19.090;2023-03-01T18:29:47;97186.63;;;-2.23;78.10
68508;BME280;55510;49.560;19.090;2023-03-01T18:32:47;97183.75;;;-2.30;78.59
68508;BME280;55510;49.560;19.090;2023-03-01T18:35:53;97185.19;;;-2.36;78.06
68508;BME280;55510;49.560;19.090;2023-03-01T18:38:54;97190.00;;;-2.41;79.18
68508;BME280;55510;49.560;19.090;2023-03-01T18:41:57;97184.50;;;-2.48;79.66
68508;BME280;55510;49.560;19.090;2023-03-01T18:44:58;97187.53;;;-2.52;79.61
68508;BME280;55510;49.560;19.090;2023-03-01T18:47:59;97186.03;;;-2.55;79.45
68508;BME280;55510;49.560;19.090;2023-03-01T18:51:07;97186.31;;;-2.58;79.68
68508;BME280;55510;49.560;19.090;2023-03-01T18:54:10;97179.88;;;-2.64;79.79
68508;BME280;55510;49.560;19.090;2023-03-01T18:57:14;97184.41;;;-2.66;79.94
68508;BME280;55510;49.560;19.090;2023-03-01T19:00:16;97194.16;;;-2.68;81.30
68508;BME280;55510;49.560;19.090;2023-03-01T19:03:17;97190.03;;;-2.70;82.04
68508;BME280;55510;49.560;19.090;2023-03-01T19:06:19;97199.78;;;-2.72;82.78
68508;BME280;55510;49.560;19.090;2023-03-01T19:09:19;97197.16;;;-2.72;82.89
68508;BME280;55510;49.560;19.090;2023-03-01T19:12:20;97204.19;;;-2.73;82.41
68508;BME280;55510;49.560;19.090;2023-03-01T19:15:21;97195.81;;;-2.77;83.68
68508;BME280;55510;49.560;19.090;2023-03-01T19:18:22;97197.44;;;-2.75;83.19
68508;BME280;55510;49.560;19.090;2023-03-01T19:21:23;97188.94;;;-2.78;82.79
68508;BME280;55510;49.560;19.090;2023-03-01T19:24:27;97196.34;;;-2.73;82.68
68508;BME280;55510;49.560;19.090;2023-03-01T19:27:28;97198.13;;;-2.73;82.68
68508;BME280;55510;49.560;19.090;2023-03-01T19:30:28;97188.94;;;-2.78;83.46
68508;BME280;55510;49.560;19.090;2023-03-01T19:33:30;97189.91;;;-2.79;84.22
68508;BME280;55510;49.560;19.090;2023-03-01T19:36:33;97181.41;;;-2.81;84.65
68508;BME280;55510;49.560;19.090;2023-03-01T19:39:35;97190.06;;;-2.80;84.00
68508;BME280;55510;49.560;19.090;2023-03-01T19:42:36;97183.34;;;-2.83;84.45
68508;BME280;55510;49.560;19.090;2023-03-01T19:45:36;97182.38;;;-2.82;84.72
68508;BME280;55510;49.560;19.090;2023-03-01T19:48:37;97191.44;;;-2.86;85.14
68508;BME280;55510;49.560;19.090;2023-03-01T19:51:39;97185.69;;;-2.99;85.20
68508;BME280;55510;49.560;19.090;2023-03-01T19:54:40;97181.72;;;-3.03;85.88
68508;BME280;55510;49.560;19.090;2023-03-01T19:57:41;97178.00;;;-3.11;85.62
68508;BME280;55510;49.560;19.090;2023-03-01T20:00:44;97179.91;;;-3.13;85.80
68508;BME280;55510;49.560;19.090;2023-03-01T20:03:46;97180.75;;;-3.12;86.13
68508;BME280;55510;49.560;19.090;2023-03-01T20:06:47;97178.16;;;-3.12;85.64
68508;BME280;55510;49.560;19.090;2023-03-01T20:09:48;97187.59;;;-3.11;85.82
68508;BME280;55510;49.560;19.090;2023-03-01T20:12:49;97185.97;;;-3.12;86.28
68508;BME280;55510;49.560;19.090;2023-03-01T20:15:50;97187.72;;;-3.13;85.86
68508;BME280;55510;49.560;19.090;2023-03-01T20:18:52;97188.97;;;-3.17;85.83
68508;BME280;55510;49.560;19.090;2023-03-01T20:21:53;97193.63;;;-3.21;85.41
68508;BME280;55510;49.560;19.090;2023-03-01T20:24:53;97187.88;;;-3.24;84.93
68508;BME280;55510;49.560;19.090;2023-03-01T20:27:54;97188.41;;;-3.30;85.07
68508;BME280;55510;49.560;19.090;2023-03-01T20:31:11;97197.72;;;-3.38;85.71
68508;BME280;55510;49.560;19.090;2023-03-01T20:34:11;97193.88;;;-3.43;86.09
68508;BME280;55510;49.560;19.090;2023-03-01T20:37:12;97197.41;;;-3.54;85.51
68508;BME280;55510;49.560;19.090;2023-03-01T20:40:13;97198.22;;;-3.64;85.58
68508;BME280;55510;49.560;19.090;2023-03-01T20:43:14;97197.13;;;-3.71;85.61
68508;BME280;55510;49.560;19.090;2023-03-01T20:46:14;97194.94;;;-3.75;85.53
68508;BME280;55510;49.560;19.090;2023-03-01T20:49:15;97201.75;;;-3.84;86.26
68508;BME280;55510;49.560;19.090;2023-03-01T20:52:16;97198.16;;;-3.93;86.13
68508;BME280;55510;49.560;19.090;2023-03-01T20:55:18;97199.63;;;-4.00;85.64
68508;BME280;55510;49.560;19.090;2023-03-01T20:58:18;97198.63;;;-4.09;86.16
68508;BME280;55510;49.560;19.090;2023-03-01T21:01:19;97200.94;;;-4.16;86.84
68508;BME280;55510;49.560;19.090;2023-03-01T21:04:20;97195.44;;;-4.23;86.76
68508;BME280;55510;49.560;19.090;2023-03-01T21:07:21;97190.34;;;-4.24;87.25
68508;BME280;55510;49.560;19.090;2023-03-01T21:10:22;97196.25;;;-4.22;87.64
68508;BME280;55510;49.560;19.090;2023-03-01T21:13:25;97195.00;;;-4.28;86.97
68508;BME280;55510;49.560;19.090;2023-03-01T21:16:26;97195.53;;;-4.34;88.17
68508;BME280;55510;49.560;19.090;2023-03-01T21:19:27;97195.78;;;-4.37;87.93
68508;BME280;55510;49.560;19.090;2023-03-01T21:22:28;97192.72;;;-4.42;88.79
68508;BME280;55510;49.560;19.090;2023-03-01T21:25:32;97192.97;;;-4.45;89.07
68508;BME280;55510;49.560;19.090;2023-03-01T21:28:34;97196.69;;;-4.48;88.91
68508;BME280;55510;49.560;19.090;2023-03-01T21:31:35;97194.34;;;-4.51;88.61
68508;BME280;55510;49.560;19.090;2023-03-01T21:34:37;97193.66;;;-4.53;89.26
68508;BME280;55510;49.560;19.090;2023-03-01T21:37:38;97196.34;;;-4.55;89.04
68508;BME280;55510;49.560;19.090;2023-03-01T21:40:39;97187.06;;;-4.57;89.69
68508;BME280;55510;49.560;19.090;2023-03-01T21:43:42;97186.13;;;-4.56;89.39
68508;BME280;55510;49.560;19.090;2023-03-01T21:46:43;97182.50;;;-4.65;88.14
68508;BME280;55510;49.560;19.090;2023-03-01T21:49:43;97187.81;;;-4.67;88.05
68508;BME280;55510;49.560;19.090;2023-03-01T21:52:44;97188.56;;;-4.76;88.76
68508;BME280;55510;49.560;19.090;2023-03-01T21:55:46;97183.78;;;-4.81;88.54
68508;BME280;55510;49.560;19.090;2023-03-01T21:58:48;97184.84;;;-4.83;88.90
68508;BME280;55510;49.560;19.090;2023-03-01T22:01:50;97189.22;;;-4.84;89.79
68508;BME280;55510;49.560;19.090;2023-03-01T22:04:52;97182.75;;;-4.89;89.54
68508;BME280;55510;49.560;19.090;2023-03-01T22:07:56;97186.66;;;-4.95;89.90
68508;BME280;55510;49.560;19.090;2023-03-01T22:11:01;97191.16;;;-4.97;90.17
68508;BME280;55510;49.560;19.090;2023-03-01T22:14:04;97181.97;;;-5.01;89.87
68508;BME280;55510;49.560;19.090;2023-03-01T22:17:05;97188.81;;;-5.00;90.04
68508;BME280;55510;49.560;19.090;2023-03-01T22:20:06;97190.47;;;-4.99;91.13
68508;BME280;55510;49.560;19.090;2023-03-01T22:23:07;97189.78;;;-5.01;91.17
68508;BME280;55510;49.560;19.090;2023-03-01T22:26:15;97184.84;;;-5.04;91.38
68508;BME280;55510;49.560;19.090;2023-03-01T22:29:22;97181.28;;;-5.03;91.09
68508;BME280;55510;49.560;19.090;2023-03-01T22:32:23;97184.47;;;-5.00;91.26
68508;BME280;55510;49.560;19.090;2023-03-01T22:35:24;97176.94;;;-5.03;91.55
68508;BME280;55510;49.560;19.090;2023-03-01T22:38:25;97174.44;;;-5.04;91.50
68508;BME280;55510;49.560;19.090;2023-03-01T22:41:27;97184.13;;;-5.06;91.02
68508;BME280;55510;49.560;19.090;2023-03-01T22:44:28;97178.50;;;-5.12;90.47
68508;BME280;55510;49.560;19.090;2023-03-01T22:47:29;97171.66;;;-5.13;90.98
68508;BME280;55510;49.560;19.090;2023-03-01T22:50:30;97173.56;;;-5.15;90.81
68508;BME280;55510;49.560;19.090;2023-03-01T22:53:31;97172.97;;;-5.18;90.08
68508;BME280;55510;49.560;19.090;2023-03-01T22:56:33;97175.50;;;-5.28;90.29
